createdAt,value
2019-05-16T00:00:34.859Z,2.55
2019-05-16T00:01:40.909Z,2.80
2019-05-16T00:02:48.003Z,2.85
2019-05-16T00:03:53.423Z,3.47
2019-05-16T00:04:59.281Z,3.33
2019-05-16T00:06:05.282Z,3.55
2019-05-16T00:07:10.218Z,2.92
2019-05-16T00:08:17.850Z,2.67
2019-05-16T00:09:22.661Z,3.22
2019-05-16T00:10:28.363Z,3.70
2019-05-16T00:11:34.264Z,2.87
2019-05-16T00:12:40.189Z,3.70
2019-05-16T00:13:45.181Z,2.90
2019-05-16T00:14:51.156Z,2.95
2019-05-16T00:15:58.556Z,3.10
2019-05-16T00:17:03.502Z,3.00
2019-05-16T00:18:08.807Z,3.27
2019-05-16T00:19:14.584Z,2.58
2019-05-16T00:20:19.856Z,3.40
2019-05-16T00:21:25.354Z,2.80
2019-05-16T00:22:30.352Z,2.83
2019-05-16T00:23:37.807Z,3.10
2019-05-16T00:24:43.245Z,2.87
2019-05-16T00:25:49.122Z,3.70
2019-05-16T00:26:54.113Z,3.30
2019-05-16T00:27:59.926Z,3.67
2019-05-16T00:29:04.987Z,3.52
2019-05-16T00:30:11.008Z,3.77
2019-05-16T00:31:18.164Z,3.47
2019-05-16T00:32:23.184Z,3.12
2019-05-16T00:33:28.699Z,3.50
2019-05-16T00:34:34.283Z,3.35
2019-05-16T00:35:39.229Z,3.40
2019-05-16T00:36:44.853Z,3.45
2019-05-16T00:37:50.608Z,3.33
2019-05-16T00:38:57.848Z,2.75
2019-05-16T00:40:02.971Z,3.30
2019-05-16T00:41:08.667Z,3.37
2019-05-16T00:42:13.717Z,2.75
2019-05-16T00:43:19.190Z,3.33
2019-05-16T00:44:24.312Z,2.75
2019-05-16T00:45:48.692Z,2.67
2019-05-16T00:47:17.769Z,2.62
2019-05-16T00:48:23.388Z,3.05
2019-05-16T00:49:28.463Z,3.10
2019-05-16T00:50:34.223Z,3.00
2019-05-16T00:51:39.325Z,2.75
2019-05-16T00:52:44.935Z,3.60
2019-05-16T00:53:50.041Z,3.25
2019-05-16T00:54:57.836Z,3.00
2019-05-16T00:56:02.656Z,3.92
2019-05-16T00:57:08.730Z,2.95
2019-05-16T00:58:14.862Z,3.20
2019-05-16T00:59:21.705Z,3.47
2019-05-16T01:00:45.753Z,2.98
2019-05-16T01:01:51.234Z,3.30
2019-05-16T01:02:57.875Z,2.72
2019-05-16T01:04:03.839Z,3.08
2019-05-16T01:05:09.302Z,3.10
2019-05-16T01:06:19.940Z,2.72
2019-05-16T01:07:21.703Z,3.70
2019-05-16T01:08:28.108Z,2.85
2019-05-16T01:09:33.425Z,2.80
2019-05-16T01:10:40.406Z,2.77
2019-05-16T01:11:45.624Z,3.20
2019-05-16T01:12:51.273Z,2.90
2019-05-16T01:13:57.839Z,3.35
2019-05-16T01:15:03.739Z,2.58
2019-05-16T01:16:08.854Z,3.60
2019-05-16T01:17:15.058Z,3.02
2019-05-16T01:18:20.136Z,2.85
2019-05-16T01:19:27.692Z,3.08
2019-05-16T01:20:32.897Z,2.85
2019-05-16T01:21:39.079Z,2.60
2019-05-16T01:22:44.213Z,2.85
2019-05-16T01:23:49.713Z,2.80
2019-05-16T01:24:54.919Z,2.60
2019-05-16T01:26:00.496Z,2.77
2019-05-16T01:27:05.683Z,2.95
2019-05-16T01:28:11.314Z,3.10
2019-05-16T01:29:18.710Z,2.62
2019-05-16T01:30:23.676Z,2.72
2019-05-16T01:31:29.009Z,3.17
2019-05-16T01:32:34.473Z,3.15
2019-05-16T01:33:39.793Z,3.15
2019-05-16T01:34:45.323Z,2.95
2019-05-16T01:35:50.224Z,3.15
2019-05-16T01:36:55.766Z,2.87
2019-05-16T01:38:01.143Z,2.87
2019-05-16T01:39:07.989Z,3.55
2019-05-16T01:40:14.440Z,2.65
2019-05-16T01:41:20.092Z,2.77
2019-05-16T01:42:25.008Z,2.42
2019-05-16T01:43:31.578Z,2.50
2019-05-16T01:44:38.190Z,2.70
2019-05-16T01:45:43.800Z,2.70
2019-05-16T01:46:48.704Z,2.55
2019-05-16T01:47:54.236Z,2.67
2019-05-16T01:48:59.339Z,3.05
2019-05-16T01:50:05.851Z,2.77
2019-05-16T01:51:11.188Z,3.05
2019-05-16T01:52:17.856Z,2.60
2019-05-16T01:53:23.248Z,2.80
2019-05-16T01:54:28.670Z,3.12
2019-05-16T01:55:33.589Z,3.27
2019-05-16T01:56:39.044Z,3.12
2019-05-16T01:57:44.045Z,2.98
2019-05-16T01:58:49.591Z,3.00
2019-05-16T01:59:54.812Z,3.00
2019-05-16T02:01:11.561Z,2.98
2019-05-16T02:02:08.391Z,2.80
2019-05-16T02:03:14.161Z,2.80
2019-05-16T02:04:19.261Z,2.98
2019-05-16T02:05:24.879Z,2.62
2019-05-16T02:06:30.032Z,3.12
2019-05-16T02:07:35.499Z,3.10
2019-05-16T02:08:40.448Z,3.20
2019-05-16T02:09:47.673Z,3.08
2019-05-16T02:10:52.950Z,3.45
2019-05-16T02:11:59.012Z,2.90
2019-05-16T02:13:04.227Z,3.30
2019-05-16T02:14:09.709Z,3.30
2019-05-16T02:15:14.877Z,2.80
2019-05-16T02:16:20.481Z,3.00
2019-05-16T02:17:25.552Z,3.90
2019-05-16T02:18:31.094Z,2.83
2019-05-16T02:19:38.380Z,3.15
2019-05-16T02:20:43.763Z,3.35
2019-05-16T02:21:50.698Z,3.70
2019-05-16T02:22:55.931Z,3.12
2019-05-16T02:24:02.135Z,3.10
2019-05-16T02:25:08.618Z,3.10
2019-05-16T02:26:13.622Z,3.22
2019-05-16T02:27:19.285Z,3.30
2019-05-16T02:28:30.390Z,3.37
2019-05-16T02:29:31.833Z,3.20
2019-05-16T02:30:36.747Z,3.90
2019-05-16T02:31:42.478Z,3.37
2019-05-16T02:32:47.439Z,3.55
2019-05-16T02:33:52.906Z,3.12
2019-05-16T02:35:00.920Z,3.33
2019-05-16T02:36:05.255Z,3.45
2019-05-16T02:37:23.600Z,3.15
2019-05-16T02:38:20.879Z,3.70
2019-05-16T02:39:24.297Z,2.92
2019-05-16T02:40:31.276Z,3.67
2019-05-16T02:41:36.688Z,3.37
2019-05-16T02:42:42.639Z,3.42
2019-05-16T02:43:50.658Z,3.70
2019-05-16T02:44:55.335Z,3.58
2019-05-16T02:46:01.417Z,3.80
2019-05-16T02:47:10.621Z,3.72
2019-05-16T02:48:14.090Z,3.30
2019-05-16T02:49:21.682Z,3.75
2019-05-16T02:50:27.080Z,3.80
2019-05-16T02:51:32.536Z,3.12
2019-05-16T02:52:37.469Z,3.02
2019-05-16T02:53:43.317Z,3.40
2019-05-16T02:54:51.553Z,2.98
2019-05-16T02:55:55.658Z,3.90
2019-05-16T02:57:01.348Z,3.27
2019-05-16T02:58:07.281Z,3.50
2019-05-16T02:59:12.229Z,3.58
2019-05-16T03:00:22.389Z,3.52
2019-05-16T03:01:27.667Z,3.22
2019-05-16T03:02:33.200Z,3.40
2019-05-16T03:03:40.261Z,3.70
2019-05-16T03:04:46.298Z,3.35
2019-05-16T03:05:51.890Z,3.35
2019-05-16T03:07:00.697Z,3.65
2019-05-16T03:08:05.586Z,3.50
2019-05-16T03:09:11.751Z,4.03
2019-05-16T03:10:20.119Z,3.95
2019-05-16T03:11:26.244Z,4.40
2019-05-16T03:12:32.690Z,3.77
2019-05-16T03:13:42.243Z,3.58
2019-05-16T03:14:50.358Z,4.00
2019-05-16T03:16:00.645Z,3.75
2019-05-16T03:17:06.081Z,3.42
2019-05-16T03:18:13.496Z,3.72
2019-05-16T03:19:21.674Z,3.75
2019-05-16T03:20:31.473Z,3.52
2019-05-16T03:21:37.637Z,4.00
2019-05-16T03:22:45.598Z,3.52
2019-05-16T03:23:50.810Z,4.17
2019-05-16T03:24:56.513Z,4.00
2019-05-16T03:26:01.689Z,4.35
2019-05-16T03:27:07.235Z,3.65
2019-05-16T03:28:12.147Z,3.90
2019-05-16T03:29:17.612Z,3.70
2019-05-16T03:30:24.036Z,4.80
2019-05-16T03:31:34.033Z,5.20
2019-05-16T03:32:44.015Z,5.20
2019-05-16T03:33:56.276Z,5.25
2019-05-16T03:34:54.683Z,4.05
2019-05-16T03:36:04.778Z,3.90
2019-05-16T03:37:06.408Z,4.12
2019-05-16T03:38:12.423Z,3.62
2019-05-16T03:39:17.563Z,4.17
2019-05-16T03:40:26.912Z,3.80
2019-05-16T03:41:31.816Z,3.83
2019-05-16T03:42:37.299Z,4.05
2019-05-16T03:43:42.233Z,3.65
2019-05-16T03:44:51.044Z,4.33
2019-05-16T03:45:54.335Z,4.30
2019-05-16T03:47:01.016Z,3.80
2019-05-16T03:48:06.119Z,4.67
2019-05-16T03:49:11.658Z,3.70
2019-05-16T03:50:16.942Z,3.77
2019-05-16T03:51:22.512Z,3.80
2019-05-16T03:52:27.419Z,3.90
2019-05-16T03:53:32.968Z,3.67
2019-05-16T03:54:38.010Z,3.55
2019-05-16T03:55:43.526Z,4.25
2019-05-16T03:56:51.191Z,4.37
2019-05-16T03:57:55.672Z,4.10
2019-05-16T03:59:01.154Z,4.10
2019-05-16T04:00:07.128Z,4.17
2019-05-16T04:01:12.474Z,3.72
2019-05-16T04:02:17.930Z,3.85
2019-05-16T04:03:23.870Z,4.00
2019-05-16T04:04:31.101Z,4.30
2019-05-16T04:05:35.997Z,4.10
2019-05-16T04:06:41.979Z,4.20
2019-05-16T04:07:46.872Z,3.65
2019-05-16T04:08:52.595Z,3.98
2019-05-16T04:09:57.555Z,3.92
2019-05-16T04:11:03.075Z,3.47
2019-05-16T04:12:10.594Z,3.75
2019-05-16T04:13:15.508Z,3.90
2019-05-16T04:14:21.550Z,3.87
2019-05-16T04:15:27.227Z,3.77
2019-05-16T04:16:32.231Z,4.08
2019-05-16T04:17:40.856Z,3.85
2019-05-16T04:18:44.534Z,3.70
2019-05-16T04:19:50.966Z,4.80
2019-05-16T04:20:56.086Z,3.95
2019-05-16T04:22:01.887Z,3.55
2019-05-16T04:23:11.295Z,3.77
2019-05-16T04:24:16.906Z,3.72
2019-05-16T04:25:25.144Z,3.80
2019-05-16T04:26:33.635Z,3.62
2019-05-16T04:27:41.237Z,4.40
2019-05-16T04:28:44.996Z,3.92
2019-05-16T04:29:51.331Z,4.28
2019-05-16T04:30:57.301Z,3.80
2019-05-16T04:32:02.240Z,4.25
2019-05-16T04:33:10.794Z,4.33
2019-05-16T04:34:15.026Z,4.28
2019-05-16T04:35:21.474Z,4.53
2019-05-16T04:36:26.654Z,4.35
2019-05-16T04:37:32.202Z,4.58
2019-05-16T04:38:45.115Z,5.00
2019-05-16T04:39:44.510Z,4.20
2019-05-16T04:40:51.623Z,4.55
2019-05-16T04:41:56.828Z,5.08
2019-05-16T04:43:06.303Z,4.53
2019-05-16T04:44:12.112Z,4.47
2019-05-16T04:45:20.918Z,4.50
2019-05-16T04:46:24.815Z,4.72
2019-05-16T04:47:31.638Z,4.50
2019-05-16T04:48:37.227Z,5.00
2019-05-16T04:49:42.219Z,4.42
2019-05-16T04:50:51.203Z,5.05
2019-05-16T04:51:54.463Z,4.12
2019-05-16T04:53:01.373Z,4.20
2019-05-16T04:54:07.340Z,4.10
2019-05-16T04:55:13.847Z,4.20
2019-05-16T04:56:21.681Z,4.17
2019-05-16T04:57:26.730Z,4.30
2019-05-16T04:58:32.064Z,4.65
2019-05-16T04:59:41.861Z,4.10
2019-05-16T05:00:51.253Z,3.90
2019-05-16T05:01:55.073Z,3.62
2019-05-16T05:03:01.330Z,3.85
2019-05-16T05:04:14.019Z,4.03
2019-05-16T05:05:14.800Z,5.10
2019-05-16T05:06:20.784Z,4.08
2019-05-16T05:07:26.348Z,3.52
2019-05-16T05:08:48.688Z,4.37
2019-05-16T05:09:40.921Z,3.90
2019-05-16T05:10:45.715Z,3.62
2019-05-16T05:11:51.977Z,4.17
2019-05-16T05:12:57.716Z,3.62
2019-05-16T05:14:03.199Z,3.98
2019-05-16T05:15:11.489Z,4.42
2019-05-16T05:16:20.034Z,3.47
2019-05-16T05:17:25.161Z,3.33
2019-05-16T05:18:30.478Z,3.75
2019-05-16T05:19:36.580Z,3.77
2019-05-16T05:20:41.908Z,4.17
2019-05-16T05:21:47.422Z,3.77
2019-05-16T05:22:52.520Z,4.50
2019-05-16T05:24:00.088Z,3.90
2019-05-16T05:25:05.518Z,3.90
2019-05-16T05:26:11.179Z,3.40
2019-05-16T05:27:16.579Z,4.30
2019-05-16T05:28:22.287Z,4.97
2019-05-16T05:29:27.371Z,4.22
2019-05-16T05:30:33.317Z,3.62
2019-05-16T05:31:46.454Z,4.33
2019-05-16T05:32:52.350Z,3.83
2019-05-16T05:34:00.715Z,3.80
2019-05-16T05:35:04.986Z,3.55
2019-05-16T05:36:12.409Z,3.75
2019-05-16T05:37:20.251Z,4.17
2019-05-16T05:38:24.516Z,4.08
2019-05-16T05:39:30.427Z,3.92
2019-05-16T05:40:35.615Z,3.80
2019-05-16T05:41:41.099Z,3.40
2019-05-16T05:42:46.096Z,3.60
2019-05-16T05:43:54.448Z,3.95
2019-05-16T05:45:00.291Z,3.40
2019-05-16T05:46:06.208Z,3.40
2019-05-16T05:47:11.220Z,3.10
2019-05-16T05:48:16.780Z,3.00
2019-05-16T05:49:21.949Z,3.37
2019-05-16T05:50:27.734Z,3.30
2019-05-16T05:51:32.798Z,3.80
2019-05-16T05:52:41.126Z,3.33
2019-05-16T05:53:45.807Z,3.20
2019-05-16T05:54:51.535Z,3.47
2019-05-16T05:55:56.538Z,3.50
2019-05-16T05:57:02.109Z,2.98
2019-05-16T05:58:07.116Z,2.92
2019-05-16T05:59:13.251Z,3.60
2019-05-16T06:00:21.069Z,2.98
2019-05-16T06:01:26.150Z,3.90
2019-05-16T06:02:31.193Z,3.02
2019-05-16T06:03:36.699Z,3.45
2019-05-16T06:04:41.660Z,3.00
2019-05-16T06:05:50.264Z,2.83
2019-05-16T06:06:54.556Z,3.30
2019-05-16T06:08:00.420Z,3.50
2019-05-16T06:09:06.282Z,3.12
2019-05-16T06:10:12.392Z,3.85
2019-05-16T06:11:17.352Z,3.35
2019-05-16T06:12:22.919Z,3.50
2019-05-16T06:13:27.919Z,3.15
2019-05-16T06:14:33.511Z,3.10
2019-05-16T06:15:40.008Z,2.65
2019-05-16T06:16:45.572Z,3.25
2019-05-16T06:17:51.025Z,3.40
2019-05-16T06:18:56.874Z,3.30
2019-05-16T06:20:01.966Z,2.80
2019-05-16T06:21:07.484Z,3.25
2019-05-16T06:22:12.552Z,3.40
2019-05-16T06:23:20.778Z,2.95
2019-05-16T06:24:25.389Z,3.17
2019-05-16T06:25:31.699Z,3.37
2019-05-16T06:26:37.176Z,3.55
2019-05-16T06:27:42.833Z,3.87
2019-05-16T06:28:50.419Z,3.20
2019-05-16T06:29:57.363Z,3.10
2019-05-16T06:31:02.719Z,3.08
2019-05-16T06:32:10.297Z,3.45
2019-05-16T06:33:16.693Z,3.40
2019-05-16T06:34:22.528Z,3.30
2019-05-16T06:35:29.744Z,3.40
2019-05-16T06:36:34.764Z,3.02
2019-05-16T06:37:40.648Z,3.90
2019-05-16T06:38:46.660Z,3.80
2019-05-16T06:39:51.694Z,3.00
2019-05-16T06:41:00.064Z,2.80
2019-05-16T06:42:04.331Z,2.50
2019-05-16T06:43:10.944Z,3.33
2019-05-16T06:44:16.268Z,3.05
2019-05-16T06:45:21.866Z,3.08
2019-05-16T06:46:26.792Z,3.30
2019-05-16T06:47:32.352Z,3.15
2019-05-16T06:48:39.683Z,3.58
2019-05-16T06:49:44.938Z,2.65
2019-05-16T06:50:51.877Z,2.80
2019-05-16T06:51:59.552Z,2.65
2019-05-16T06:53:04.247Z,2.90
2019-05-16T06:54:10.145Z,3.15
2019-05-16T06:55:14.963Z,3.47
2019-05-16T06:56:20.793Z,2.95
2019-05-16T06:57:43.859Z,2.72
2019-05-16T06:58:51.811Z,2.98
2019-05-16T06:59:55.821Z,2.40
2019-05-16T07:01:03.506Z,2.40
2019-05-16T07:02:10.874Z,2.87
2019-05-16T07:03:15.546Z,2.90
2019-05-16T07:04:20.611Z,3.05
2019-05-16T07:05:26.083Z,2.98
2019-05-16T07:06:51.868Z,3.25
2019-05-16T07:07:40.502Z,3.00
2019-05-16T07:08:45.130Z,2.95
2019-05-16T07:09:59.958Z,3.47
2019-05-16T07:10:59.949Z,3.58
2019-05-16T07:12:05.430Z,2.90
2019-05-16T07:13:10.520Z,2.70
2019-05-16T07:14:16.050Z,3.00
2019-05-16T07:15:21.327Z,2.45
2019-05-16T07:16:26.787Z,2.60
2019-05-16T07:17:31.849Z,2.62
2019-05-16T07:18:39.601Z,3.17
2019-05-16T07:19:44.041Z,2.77
2019-05-16T07:20:51.057Z,3.00
2019-05-16T07:21:56.571Z,2.70
2019-05-16T07:23:02.119Z,2.40
2019-05-16T07:24:07.428Z,2.50
2019-05-16T07:25:13.677Z,2.60
2019-05-16T07:26:20.486Z,3.25
2019-05-16T07:27:26.319Z,2.42
2019-05-16T07:28:31.482Z,2.22
2019-05-16T07:29:37.094Z,3.20
2019-05-16T07:30:42.335Z,2.50
2019-05-16T07:31:48.181Z,3.08
2019-05-16T07:32:53.443Z,2.52
2019-05-16T07:34:00.887Z,3.30
2019-05-16T07:35:09.620Z,2.42
2019-05-16T07:36:15.989Z,2.27
2019-05-16T07:37:21.373Z,3.20
2019-05-16T07:38:26.903Z,2.80
2019-05-16T07:39:31.964Z,2.80
2019-05-16T07:40:39.935Z,2.35
2019-05-16T07:41:44.077Z,2.42
2019-05-16T07:42:51.007Z,2.30
2019-05-16T07:43:56.354Z,3.00
2019-05-16T07:45:02.269Z,2.55
2019-05-16T07:46:07.684Z,2.65
2019-05-16T07:47:13.302Z,2.62
2019-05-16T07:48:21.634Z,3.15
2019-05-16T07:49:26.021Z,2.60
2019-05-16T07:50:31.522Z,2.42
2019-05-16T07:51:37.133Z,2.30
2019-05-16T07:52:42.527Z,2.50
2019-05-16T07:53:50.404Z,2.50
2019-05-16T07:54:55.766Z,2.22
2019-05-16T07:56:01.616Z,2.50
2019-05-16T07:57:18.524Z,2.72
2019-05-16T07:58:14.069Z,2.60
2019-05-16T07:59:20.445Z,2.58
2019-05-16T08:00:45.890Z,2.80
2019-05-16T08:01:33.084Z,2.10
2019-05-16T08:02:40.289Z,2.45
2019-05-16T08:03:45.560Z,2.40
2019-05-16T08:04:51.191Z,2.30
2019-05-16T08:05:56.579Z,2.45
2019-05-16T08:07:05.636Z,2.33
2019-05-16T08:08:10.506Z,4.62
2019-05-16T08:09:16.756Z,2.55
2019-05-16T08:10:36.919Z,2.70
2019-05-16T08:11:30.411Z,2.52
2019-05-16T08:12:36.052Z,2.95
2019-05-16T08:13:41.749Z,2.35
2019-05-16T08:14:49.867Z,3.05
2019-05-16T08:15:54.516Z,2.50
2019-05-16T08:17:01.088Z,2.75
2019-05-16T08:18:06.994Z,2.50
2019-05-16T08:19:11.979Z,2.65
2019-05-16T08:20:17.646Z,3.00
2019-05-16T08:21:27.485Z,3.33
2019-05-16T08:22:30.886Z,2.20
2019-05-16T08:23:36.065Z,2.33
2019-05-16T08:24:41.951Z,2.20
2019-05-16T08:25:46.923Z,3.42
2019-05-16T08:26:52.400Z,2.72
2019-05-16T08:28:00.570Z,2.30
2019-05-16T08:29:04.876Z,2.45
2019-05-16T08:30:11.207Z,2.58
2019-05-16T08:31:16.737Z,2.42
2019-05-16T08:32:22.917Z,2.40
2019-05-16T08:33:31.981Z,2.40
2019-05-16T08:34:35.823Z,2.67
2019-05-16T08:35:41.563Z,3.02
2019-05-16T08:36:46.569Z,2.62
2019-05-16T08:37:52.416Z,2.67
2019-05-16T08:39:00.895Z,3.15
2019-05-16T08:40:05.107Z,2.60
2019-05-16T08:42:20.598Z,2.90
2019-05-16T08:43:25.996Z,2.75
2019-05-16T08:44:32.626Z,2.42
2019-05-16T08:45:41.563Z,2.50
2019-05-16T08:46:49.440Z,3.02
2019-05-16T08:47:52.695Z,2.45
2019-05-16T08:49:01.178Z,2.80
2019-05-16T08:50:11.607Z,2.70
2019-05-16T08:50:13.684Z,2.87
2019-05-16T08:51:15.002Z,3.00
2019-05-16T08:52:22.444Z,2.80
2019-05-16T08:53:31.305Z,2.75
2019-05-16T08:54:34.346Z,2.95
2019-05-16T08:55:43.292Z,2.65
2019-05-16T08:56:50.781Z,2.50
2019-05-16T08:57:55.093Z,3.00
2019-05-16T08:59:02.701Z,3.00
2019-05-16T09:00:14.741Z,2.83
2019-05-16T09:01:16.137Z,2.40
2019-05-16T09:03:32.064Z,2.90
2019-05-16T09:04:35.872Z,2.60
2019-05-16T09:06:48.053Z,4.75
2019-05-16T09:08:00.433Z,2.70
2019-05-16T09:09:15.641Z,2.40
2019-05-16T09:10:26.102Z,2.90
2019-05-16T09:10:31.976Z,3.08
2019-05-16T09:10:40.777Z,2.70
2019-05-16T09:11:33.863Z,2.42
2019-05-16T09:12:21.994Z,2.42
2019-05-16T09:13:28.016Z,3.20
2019-05-16T09:14:38.819Z,3.15
2019-05-16T09:15:40.320Z,2.90
2019-05-16T09:16:47.724Z,2.80
2019-05-16T09:17:52.647Z,2.70
2019-05-16T09:18:57.952Z,2.65
2019-05-16T09:20:04.006Z,3.75
2019-05-16T09:21:09.329Z,2.70
2019-05-16T09:22:17.899Z,2.60
2019-05-16T09:23:22.060Z,2.75
2019-05-16T09:24:29.062Z,2.50
2019-05-16T09:25:36.816Z,2.92
2019-05-16T09:26:41.359Z,2.85
2019-05-16T09:27:47.150Z,2.40
2019-05-16T09:28:53.351Z,2.37
2019-05-16T09:29:58.400Z,3.98
2019-05-16T09:31:06.845Z,2.62
2019-05-16T09:32:16.863Z,2.67
2019-05-16T09:33:18.340Z,2.58
2019-05-16T09:34:23.390Z,2.70
2019-05-16T09:35:28.961Z,2.60
2019-05-16T09:36:33.854Z,3.33
2019-05-16T09:37:39.406Z,2.75
2019-05-16T09:38:44.425Z,2.80
2019-05-16T09:39:50.210Z,3.35
2019-05-16T09:40:57.008Z,2.92
2019-05-16T09:42:02.903Z,3.05
2019-05-16T09:43:08.188Z,2.55
2019-05-16T09:44:13.847Z,3.20
2019-05-16T09:45:19.254Z,2.87
2019-05-16T09:46:27.406Z,2.52
2019-05-16T09:47:31.493Z,3.00
2019-05-16T09:48:38.148Z,3.10
2019-05-16T09:49:43.422Z,4.35
2019-05-16T09:50:49.508Z,2.95
2019-05-16T09:51:56.733Z,3.90
2019-05-16T09:53:02.221Z,3.27
2019-05-16T09:54:07.620Z,2.60
2019-05-16T09:55:13.394Z,2.58
2019-05-16T09:56:18.495Z,2.90
2019-05-16T09:57:24.053Z,2.75
2019-05-16T09:58:29.055Z,2.80
2019-05-16T09:59:36.947Z,3.27
2019-05-16T10:00:41.918Z,3.35
2019-05-16T10:01:48.003Z,2.85
2019-05-16T10:02:53.284Z,3.17
2019-05-16T10:03:59.102Z,3.02
2019-05-16T10:05:05.056Z,2.90
2019-05-16T10:06:12.161Z,3.05
2019-05-16T10:07:17.805Z,3.10
2019-05-16T10:08:23.703Z,3.85
2019-05-16T10:09:41.385Z,3.08
2019-05-16T10:10:36.974Z,2.60
2019-05-16T10:11:42.969Z,3.00
2019-05-16T10:12:48.541Z,3.30
2019-05-16T10:13:53.729Z,2.90
2019-05-16T10:14:59.897Z,3.20
2019-05-16T10:16:07.211Z,2.80
2019-05-16T10:17:12.942Z,2.50
2019-05-16T10:18:17.920Z,2.25
2019-05-16T10:19:23.703Z,2.52
2019-05-16T10:20:28.700Z,3.33
2019-05-16T10:21:37.176Z,2.98
2019-05-16T10:22:41.473Z,3.08
2019-05-16T10:23:47.337Z,2.60
2019-05-16T10:24:52.397Z,2.55
2019-05-16T10:25:57.925Z,2.55
2019-05-16T10:27:02.905Z,2.10
2019-05-16T10:28:08.514Z,2.70
2019-05-16T10:29:13.637Z,2.20
2019-05-16T10:30:19.890Z,2.67
2019-05-16T10:31:41.042Z,2.37
2019-05-16T10:32:32.985Z,2.42
2019-05-16T10:33:39.074Z,2.70
2019-05-16T10:34:46.700Z,2.37
2019-05-16T10:35:51.789Z,2.42
2019-05-16T10:36:57.711Z,2.47
2019-05-16T10:38:02.847Z,3.10
2019-05-16T10:39:08.787Z,2.15
2019-05-16T10:40:18.244Z,2.05
2019-05-16T10:41:24.970Z,2.40
2019-05-16T10:42:29.975Z,2.58
2019-05-16T10:43:37.059Z,2.20
2019-05-16T10:44:42.241Z,2.72
2019-05-16T10:45:47.820Z,2.40
2019-05-16T10:46:53.108Z,2.95
2019-05-16T10:47:58.590Z,3.00
2019-05-16T10:49:03.650Z,2.87
2019-05-16T10:50:09.772Z,2.65
2019-05-16T10:51:17.030Z,2.00
2019-05-16T10:52:22.359Z,2.85
2019-05-16T10:53:57.137Z,3.33
2019-05-16T10:54:36.916Z,2.80
2019-05-16T10:55:41.965Z,2.62
2019-05-16T10:56:47.645Z,2.52
2019-05-16T10:57:53.002Z,2.72
2019-05-16T10:59:46.159Z,2.90
2019-05-16T11:00:18.103Z,3.67
2019-05-16T11:01:27.151Z,2.52
2019-05-16T11:02:21.150Z,2.92
2019-05-16T11:03:27.676Z,2.80
2019-05-16T11:04:52.917Z,2.70
2019-05-16T11:05:40.859Z,3.27
2019-05-16T11:06:46.589Z,2.98
2019-05-16T11:07:53.339Z,2.50
2019-05-16T11:08:58.650Z,3.00
2019-05-16T11:10:07.117Z,3.30
2019-05-16T11:11:12.480Z,3.72
2019-05-16T11:12:20.491Z,3.30
2019-05-16T11:13:24.601Z,3.95
2019-05-16T11:14:30.141Z,3.87
2019-05-16T11:15:37.303Z,3.70
2019-05-16T11:16:42.918Z,3.25
2019-05-16T11:17:48.059Z,3.35
2019-05-16T11:18:53.991Z,3.10
2019-05-16T11:19:59.148Z,3.10
2019-05-16T11:21:04.894Z,3.33
2019-05-16T11:22:09.821Z,3.20
2019-05-16T11:23:22.275Z,3.00
2019-05-16T11:24:22.319Z,3.40
2019-05-16T11:25:31.832Z,3.98
2019-05-16T11:26:36.748Z,3.90
2019-05-16T11:27:42.018Z,3.05
2019-05-16T11:28:48.798Z,3.95
2019-05-16T11:29:56.638Z,3.70
2019-05-16T11:31:07.024Z,3.60
2019-05-16T11:32:08.649Z,3.50
2019-05-16T11:33:13.762Z,3.75
2019-05-16T11:34:19.368Z,3.75
2019-05-16T11:35:26.997Z,3.27
2019-05-16T11:36:31.825Z,3.45
2019-05-16T11:37:37.723Z,3.70
2019-05-16T11:38:43.358Z,3.98
2019-05-16T11:39:48.422Z,2.98
2019-05-16T11:40:56.659Z,3.45
2019-05-16T11:42:00.593Z,4.08
2019-05-16T11:43:14.691Z,3.27
2019-05-16T11:44:12.917Z,4.42
2019-05-16T11:45:18.810Z,3.60
2019-05-16T11:46:23.876Z,4.42
2019-05-16T11:47:29.493Z,4.10
2019-05-16T11:48:37.414Z,4.10
2019-05-16T11:49:42.112Z,3.83
2019-05-16T11:50:48.121Z,4.10
2019-05-16T11:51:53.827Z,4.12
2019-05-16T11:52:59.375Z,4.75
2019-05-16T11:54:06.893Z,3.80
2019-05-16T11:55:12.679Z,3.85
2019-05-16T11:56:18.241Z,4.20
2019-05-16T11:57:23.860Z,3.67
2019-05-16T11:58:29.510Z,4.05
2019-05-16T11:59:37.163Z,3.80
2019-05-16T12:00:41.919Z,3.65
2019-05-16T12:01:47.609Z,4.20
2019-05-16T12:02:53.579Z,3.90
2019-05-16T12:03:58.476Z,4.37
2019-05-16T12:05:04.028Z,4.25
2019-05-16T12:06:11.161Z,4.33
2019-05-16T12:07:18.965Z,4.10
2019-05-16T12:08:23.679Z,3.60
2019-05-16T12:09:33.705Z,3.83
2019-05-16T12:10:36.380Z,3.17
2019-05-16T12:11:42.086Z,4.37
2019-05-16T12:12:47.017Z,3.60
2019-05-16T12:13:52.521Z,3.58
2019-05-16T12:14:58.456Z,3.50
2019-05-16T12:16:04.061Z,4.28
2019-05-16T12:17:09.039Z,4.10
2019-05-16T12:18:17.108Z,3.83
2019-05-16T12:19:21.673Z,4.45
2019-05-16T12:20:27.548Z,3.87
2019-05-16T12:21:32.525Z,4.08
2019-05-16T12:22:38.426Z,4.67
2019-05-16T12:23:43.435Z,4.47
2019-05-16T12:24:49.000Z,4.30
2019-05-16T12:25:54.036Z,4.55
2019-05-16T12:27:00.774Z,4.40
2019-05-16T12:28:08.100Z,4.30
2019-05-16T12:29:13.507Z,4.58
2019-05-16T12:30:18.922Z,4.10
2019-05-16T12:31:24.792Z,3.98
2019-05-16T12:32:29.796Z,4.10
2019-05-16T12:33:37.512Z,3.62
2019-05-16T12:34:42.847Z,4.03
2019-05-16T12:35:48.379Z,4.22
2019-05-16T12:36:53.283Z,4.37
2019-05-16T12:37:58.754Z,3.85
2019-05-16T12:39:04.903Z,4.15
2019-05-16T12:40:10.556Z,3.65
2019-05-16T12:41:15.650Z,4.30
2019-05-16T12:42:21.430Z,4.55
2019-05-16T12:43:44.206Z,4.47
2019-05-16T12:44:33.919Z,3.90
2019-05-16T12:45:39.015Z,4.67
2019-05-16T12:46:47.251Z,4.83
2019-05-16T12:47:51.387Z,4.53
2019-05-16T12:48:57.544Z,4.45
2019-05-16T12:50:02.752Z,3.98
2019-05-16T12:51:09.150Z,4.20
2019-05-16T12:52:14.174Z,4.30
2019-05-16T12:53:23.493Z,4.67
2019-05-16T12:54:27.606Z,4.10
2019-05-16T12:55:33.468Z,4.30
2019-05-16T12:56:38.459Z,4.08
2019-05-16T12:57:44.013Z,4.62
2019-05-16T12:58:50.877Z,4.50
2019-05-16T12:59:57.055Z,3.87
2019-05-16T13:01:02.198Z,4.22
2019-05-16T13:02:07.924Z,4.65
2019-05-16T13:03:12.991Z,4.30
2019-05-16T13:04:19.453Z,4.08
2019-05-16T13:05:26.739Z,4.33
2019-05-16T13:06:31.821Z,4.67
2019-05-16T13:07:37.686Z,4.70
2019-05-16T13:08:43.556Z,4.22
2019-05-16T13:09:50.282Z,4.50
2019-05-16T13:10:57.788Z,4.85
2019-05-16T13:12:02.968Z,4.20
2019-05-16T13:13:08.567Z,4.25
2019-05-16T13:14:13.606Z,4.85
2019-05-16T13:15:19.566Z,5.17
2019-05-16T13:16:24.549Z,4.67
2019-05-16T13:17:30.090Z,5.08
2019-05-16T13:18:36.978Z,4.55
2019-05-16T13:19:44.521Z,4.62
2019-05-16T13:20:49.374Z,5.53
2019-05-16T13:21:57.617Z,5.17
2019-05-16T13:23:01.980Z,5.20
2019-05-16T13:24:07.951Z,5.90
2019-05-16T13:25:13.511Z,6.20
2019-05-16T13:26:18.990Z,5.10
2019-05-16T13:27:24.336Z,6.20
2019-05-16T13:28:30.275Z,6.55
2019-05-16T13:29:37.081Z,6.67
2019-05-16T13:30:42.903Z,6.60
2019-05-16T13:31:48.592Z,5.87
2019-05-16T13:32:56.430Z,6.70
2019-05-16T13:34:00.883Z,5.60
2019-05-16T13:35:07.738Z,5.17
2019-05-16T13:36:12.908Z,5.28
2019-05-16T13:37:18.574Z,6.00
2019-05-16T13:38:23.892Z,5.35
2019-05-16T13:39:29.476Z,5.62
2019-05-16T13:40:34.529Z,5.92
2019-05-16T13:41:40.327Z,5.12
2019-05-16T13:42:47.751Z,5.95
2019-05-16T13:43:52.601Z,6.50
2019-05-16T13:44:58.033Z,6.37
2019-05-16T13:46:06.848Z,5.87
2019-05-16T13:47:10.706Z,5.75
2019-05-16T13:48:17.218Z,7.17
2019-05-16T13:49:22.414Z,5.75
2019-05-16T13:50:28.034Z,5.75
2019-05-16T13:51:32.943Z,5.47
2019-05-16T13:52:38.565Z,5.95
2019-05-16T13:53:43.686Z,6.03
2019-05-16T13:54:49.538Z,6.15
2019-05-16T13:55:54.831Z,5.87
2019-05-16T13:57:00.361Z,6.17
2019-05-16T13:58:07.656Z,6.10
2019-05-16T13:59:13.470Z,5.90
2019-05-16T14:00:18.831Z,5.90
2019-05-16T14:01:24.605Z,6.05
2019-05-16T14:02:31.378Z,6.33
2019-05-16T14:03:37.514Z,6.03
2019-05-16T14:04:42.648Z,5.58
2019-05-16T14:05:48.496Z,5.95
2019-05-16T14:06:58.101Z,5.40
2019-05-16T14:08:01.563Z,4.92
2019-05-16T14:09:07.725Z,5.42
2019-05-16T14:10:13.438Z,5.58
2019-05-16T14:11:18.746Z,7.30
2019-05-16T14:12:24.200Z,5.17
2019-05-16T14:13:29.243Z,5.22
2019-05-16T14:14:41.951Z,5.20
2019-05-16T14:15:41.735Z,5.47
2019-05-16T14:16:47.489Z,4.70
2019-05-16T14:17:52.534Z,4.90
2019-05-16T14:18:58.324Z,5.15
2019-05-16T14:20:03.448Z,5.12
2019-05-16T14:21:09.643Z,5.25
2019-05-16T14:22:17.299Z,5.20
2019-05-16T14:23:21.994Z,4.75
2019-05-16T14:24:28.166Z,4.97
2019-05-16T14:25:33.899Z,5.10
2019-05-16T14:26:38.974Z,4.65
2019-05-16T14:27:47.328Z,4.70
2019-05-16T14:28:51.759Z,4.78
2019-05-16T14:29:57.907Z,5.25
2019-05-16T14:31:02.954Z,5.03
2019-05-16T14:32:10.181Z,4.87
2019-05-16T14:33:17.192Z,4.87
2019-05-16T14:34:22.920Z,5.50
2019-05-16T14:35:28.015Z,4.30
2019-05-16T14:36:33.493Z,5.20
2019-05-16T14:37:38.558Z,4.65
2019-05-16T14:38:46.611Z,5.22
2019-05-16T14:39:51.041Z,4.30